createdAt,value
2022-10-13T00:00:55.728Z,9.65
2022-10-13T00:03:22.530Z,9.35
2022-10-13T00:05:50.469Z,9.60
2022-10-13T00:08:20.008Z,9.52
2022-10-13T00:10:50.735Z,9.93
2022-10-13T00:13:20.485Z,9.75
2022-10-13T00:15:48.530Z,8.73
2022-10-13T00:18:16.576Z,8.60
2022-10-13T00:20:50.157Z,8.85
2022-10-13T00:23:17.371Z,8.88
2022-10-13T00:25:48.991Z,9.07
2022-10-13T00:28:17.653Z,9.13
2022-10-13T00:30:44.817Z,9.30
2022-10-13T00:33:13.374Z,8.98
2022-10-13T00:35:45.097Z,9.98
2022-10-13T00:38:16.150Z,9.23
2022-10-13T00:40:51.494Z,9.43
2022-10-13T00:43:22.941Z,10.00
2022-10-13T00:45:50.769Z,9.18
2022-10-13T00:48:20.862Z,9.52
2022-10-13T00:50:48.507Z,9.38
2022-10-13T00:53:16.767Z,9.50
2022-10-13T00:55:44.818Z,8.35
2022-10-13T00:58:16.187Z,8.93
2022-10-13T01:00:48.786Z,8.15
2022-10-13T01:03:20.252Z,9.25
2022-10-13T01:05:48.483Z,9.38
2022-10-13T01:08:16.398Z,10.13
2022-10-13T01:10:52.057Z,9.07
2022-10-13T01:13:18.694Z,10.27
2022-10-13T01:15:53.682Z,10.05
2022-10-13T01:18:47.457Z,10.48
2022-10-13T01:21:33.148Z,12.90
2022-10-13T01:24:33.374Z,12.73
2022-10-13T01:27:15.336Z,10.98
2022-10-13T01:30:07.208Z,11.60
2022-10-13T01:32:47.357Z,11.93
2022-10-13T01:35:24.993Z,12.98
2022-10-13T01:38:07.842Z,12.85
2022-10-13T01:43:24.872Z,12.30
2022-10-13T01:46:01.219Z,12.85
2022-10-13T01:48:29.366Z,13.27
2022-10-13T01:50:58.442Z,14.85
2022-10-13T01:53:26.017Z,14.35
2022-10-13T01:55:59.337Z,15.23
2022-10-13T01:58:29.902Z,15.75
2022-10-13T02:01:23.461Z,16.58
2022-10-13T02:04:12.397Z,16.00
2022-10-13T02:06:52.726Z,14.85
2022-10-13T02:09:31.665Z,16.77
2022-10-13T02:12:05.461Z,17.02
2022-10-13T02:14:36.257Z,15.23
2022-10-13T02:17:05.521Z,15.85
2022-10-13T02:19:37.385Z,16.48
2022-10-13T02:22:05.971Z,17.15
2022-10-13T02:24:33.122Z,16.27
2022-10-13T02:27:00.023Z,16.65
2022-10-13T02:29:26.785Z,16.08
2022-10-13T02:31:54.840Z,15.85
2022-10-13T02:34:21.634Z,15.73
2022-10-13T02:36:48.340Z,16.70
2022-10-13T02:39:15.161Z,17.23
2022-10-13T02:41:41.824Z,15.27
2022-10-13T02:44:08.530Z,15.88
2022-10-13T02:46:41.091Z,15.38
2022-10-13T02:49:07.798Z,15.63
2022-10-13T02:51:39.693Z,15.82
2022-10-13T02:54:07.197Z,15.70
2022-10-13T02:56:33.856Z,14.60
2022-10-13T02:59:00.604Z,14.75
2022-10-13T03:01:27.538Z,15.40
2022-10-13T03:03:54.295Z,14.27
2022-10-13T03:06:21.432Z,14.20
2022-10-13T03:08:48.112Z,14.80
2022-10-13T03:11:14.972Z,13.43
2022-10-13T03:13:41.820Z,13.90
2022-10-13T03:16:09.180Z,14.88
2022-10-13T03:18:36.006Z,13.75
2022-10-13T03:21:05.699Z,13.32
2022-10-13T03:23:33.577Z,13.32
2022-10-13T03:26:00.474Z,13.80
2022-10-13T03:28:27.490Z,13.63
2022-10-13T03:31:20.376Z,12.85
2022-10-13T03:33:47.345Z,12.88
2022-10-13T03:36:14.152Z,13.13
2022-10-13T03:38:42.494Z,11.95
2022-10-13T03:41:15.436Z,12.45
2022-10-13T03:43:44.524Z,12.40
2022-10-13T03:46:13.426Z,12.50
2022-10-13T03:48:41.292Z,12.50
2022-10-13T03:51:13.112Z,11.90
2022-10-13T03:53:47.216Z,13.32
2022-10-13T03:56:17.437Z,12.02
2022-10-13T03:58:54.100Z,12.60
2022-10-13T04:01:26.049Z,12.30
2022-10-13T04:03:55.492Z,12.63
2022-10-13T04:06:23.116Z,12.18
2022-10-13T04:08:50.047Z,13.00
2022-10-13T04:11:16.967Z,12.35
2022-10-13T04:13:44.956Z,12.80
2022-10-13T04:16:25.909Z,12.82
2022-10-13T04:19:02.282Z,12.82
2022-10-13T04:21:30.922Z,12.10
2022-10-13T04:23:59.197Z,11.45
2022-10-13T04:26:27.806Z,12.50
2022-10-13T04:28:55.578Z,11.88
2022-10-13T04:31:23.969Z,11.95
2022-10-13T04:33:51.154Z,11.68
2022-10-13T04:36:19.029Z,12.70
2022-10-13T04:38:48.342Z,12.00
2022-10-13T04:41:17.159Z,12.05
2022-10-13T04:43:46.865Z,11.65
2022-10-13T04:46:16.344Z,11.73
2022-10-13T04:48:43.042Z,11.50
2022-10-13T04:51:16.136Z,12.15
2022-10-13T04:53:43.107Z,11.38
2022-10-13T04:56:17.375Z,10.73
2022-10-13T04:58:45.821Z,11.00
2022-10-13T05:01:21.193Z,11.38
2022-10-13T05:03:52.517Z,11.80
2022-10-13T05:06:21.837Z,11.02
2022-10-13T05:08:50.283Z,11.32
2022-10-13T05:11:18.374Z,10.73
2022-10-13T05:13:46.579Z,10.95
2022-10-13T05:16:15.834Z,10.55
2022-10-13T05:18:43.445Z,10.82
2022-10-13T05:21:16.346Z,12.45
2022-10-13T05:23:45.222Z,12.80
2022-10-13T05:26:14.704Z,11.63
2022-10-13T05:28:42.244Z,13.07
2022-10-13T05:31:09.912Z,12.23
2022-10-13T05:33:37.413Z,10.63
2022-10-13T05:36:06.181Z,10.77
2022-10-13T05:38:35.998Z,11.80
2022-10-13T05:41:07.169Z,11.82
2022-10-13T05:43:34.189Z,10.65
2022-10-13T05:46:01.482Z,10.45
2022-10-13T05:48:30.109Z,10.85
2022-10-13T05:50:59.436Z,10.68
2022-10-13T05:53:29.869Z,10.10
2022-10-13T05:56:06.029Z,11.02
2022-10-13T05:58:36.584Z,10.90
2022-10-13T06:01:07.009Z,9.30
2022-10-13T06:03:34.994Z,9.52
2022-10-13T06:06:02.332Z,9.77
2022-10-13T06:08:29.628Z,9.43
2022-10-13T06:10:56.369Z,9.45
2022-10-13T06:13:23.154Z,9.65
2022-10-13T06:15:49.837Z,9.65
2022-10-13T06:18:17.062Z,9.50
2022-10-13T06:20:43.810Z,9.25
2022-10-13T06:23:15.264Z,10.27
2022-10-13T06:25:49.210Z,9.85
2022-10-13T06:28:18.587Z,9.70
2022-10-13T06:30:53.747Z,10.00
2022-10-13T06:33:25.316Z,10.00
2022-10-13T06:35:52.708Z,10.13
2022-10-13T06:38:19.807Z,10.05
2022-10-13T06:40:48.279Z,10.55
2022-10-13T06:43:14.977Z,11.20
2022-10-13T06:45:41.848Z,10.93
2022-10-13T06:48:08.581Z,11.13
2022-10-13T06:50:38.342Z,10.60
2022-10-13T06:53:08.761Z,10.60
2022-10-13T06:55:35.479Z,10.20
2022-10-13T06:58:02.138Z,11.73
2022-10-13T07:00:28.875Z,12.10
2022-10-13T07:02:55.697Z,10.95
2022-10-13T07:05:22.376Z,10.65
2022-10-13T07:07:52.902Z,10.38
2022-10-13T07:10:20.013Z,10.75
2022-10-13T07:12:46.731Z,12.30
2022-10-13T07:15:13.513Z,11.23
2022-10-13T07:17:40.306Z,11.38
2022-10-13T07:20:07.966Z,11.20
2022-10-13T07:22:34.637Z,11.07
2022-10-13T07:25:01.319Z,9.77
2022-10-13T07:27:28.310Z,10.82
2022-10-13T07:29:55.753Z,10.55
2022-10-13T07:32:22.410Z,10.20
2022-10-13T07:34:53.216Z,9.82
2022-10-13T07:37:20.366Z,10.63
2022-10-13T07:39:47.467Z,10.95
2022-10-13T07:42:14.191Z,10.20
2022-10-13T07:44:41.040Z,10.88
2022-10-13T07:47:07.716Z,10.93
2022-10-13T07:49:34.446Z,11.20
2022-10-13T07:52:04.095Z,11.48
2022-10-13T07:54:30.830Z,12.52
2022-10-13T07:56:57.503Z,12.40
2022-10-13T07:59:24.255Z,12.48
2022-10-13T08:01:51.517Z,12.13
2022-10-13T08:04:18.415Z,12.23
2022-10-13T08:06:45.284Z,11.93
2022-10-13T08:09:12.589Z,11.23
2022-10-13T08:11:39.453Z,11.50
2022-10-13T08:14:06.230Z,10.80
2022-10-13T08:16:33.340Z,11.57
2022-10-13T08:19:00.296Z,10.63
2022-10-13T08:21:56.434Z,11.57
2022-10-13T08:24:17.236Z,11.38
2022-10-13T08:26:46.279Z,12.10
2022-10-13T08:29:22.451Z,11.48
2022-10-13T08:31:51.283Z,10.93
2022-10-13T08:34:18.133Z,11.45
2022-10-13T08:36:44.868Z,10.65
2022-10-13T08:39:11.854Z,12.05
2022-10-13T08:41:43.702Z,10.70
2022-10-13T08:47:37.342Z,10.95
2022-10-13T08:50:21.304Z,10.00
2022-10-13T08:52:52.735Z,10.82
2022-10-13T08:55:45.275Z,10.88
2022-10-13T08:58:19.116Z,12.20
2022-10-13T09:00:45.838Z,13.32
2022-10-13T09:03:50.709Z,12.98
2022-10-13T09:06:27.632Z,11.38
2022-10-13T09:09:02.885Z,12.35
2022-10-13T09:11:33.789Z,14.30
2022-10-13T09:14:03.970Z,11.05
2022-10-13T09:16:35.582Z,20.02
2022-10-13T09:19:33.936Z,14.68
2022-10-13T09:22:23.312Z,12.00
2022-10-13T09:25:09.995Z,11.20
2022-10-13T09:27:51.685Z,10.70
2022-10-13T09:30:31.283Z,10.35
2022-10-13T09:33:20.761Z,11.45
2022-10-13T09:36:06.408Z,10.52
2022-10-13T09:38:33.544Z,10.63
2022-10-13T09:41:09.526Z,10.68
2022-10-13T09:43:43.633Z,10.18
2022-10-13T09:46:22.930Z,10.20
2022-10-13T09:48:54.423Z,10.98
2022-10-13T09:51:44.801Z,10.55
2022-10-13T09:54:47.373Z,10.27
2022-10-13T09:57:26.041Z,10.50
2022-10-13T10:00:14.511Z,10.15
2022-10-13T10:02:57.717Z,10.65
2022-10-13T10:05:30.443Z,10.57
2022-10-13T10:08:06.410Z,10.52
2022-10-13T10:10:40.729Z,9.75
2022-10-13T10:13:13.059Z,10.13
2022-10-13T10:16:06.966Z,10.20
2022-10-13T10:19:15.459Z,8.85
2022-10-13T10:22:05.772Z,10.20
2022-10-13T10:24:55.864Z,9.40
2022-10-13T10:27:41.341Z,9.68
2022-10-13T10:30:17.264Z,9.55
2022-10-13T10:33:06.745Z,10.00
2022-10-13T10:35:45.273Z,9.40
2022-10-13T10:38:50.730Z,10.40
2022-10-13T10:41:42.380Z,9.85
2022-10-13T10:44:11.145Z,8.63
2022-10-13T10:46:46.208Z,9.55
2022-10-13T10:49:22.284Z,10.25
2022-10-13T10:51:49.831Z,10.50
2022-10-13T10:54:19.589Z,9.93
2022-10-13T10:57:25.637Z,10.02
2022-10-13T11:00:06.141Z,10.10
2022-10-13T11:02:46.085Z,10.27
2022-10-13T11:05:13.634Z,10.50
2022-10-13T11:07:40.261Z,9.77
2022-10-13T11:10:18.256Z,10.18
2022-10-13T11:12:51.040Z,9.75
2022-10-13T11:15:41.171Z,10.25
2022-10-13T11:18:59.214Z,9.32
2022-10-13T11:21:53.619Z,9.35
2022-10-13T11:24:42.029Z,9.98
2022-10-13T11:27:17.030Z,9.77
2022-10-13T11:29:44.036Z,10.38
2022-10-13T11:32:44.930Z,9.50
2022-10-13T11:35:11.554Z,9.30
2022-10-13T11:38:06.785Z,9.45
2022-10-13T11:41:02.950Z,10.48
2022-10-13T11:43:43.453Z,9.55
2022-10-13T11:46:21.798Z,9.73
2022-10-13T11:49:16.338Z,8.88
2022-10-13T11:52:04.534Z,9.45
2022-10-13T11:54:46.958Z,8.90
2022-10-13T11:57:20.404Z,8.55
2022-10-13T11:59:49.432Z,9.82
2022-10-13T12:02:19.332Z,8.52
2022-10-13T12:05:01.699Z,8.20
2022-10-13T12:07:36.983Z,8.60
2022-10-13T12:10:08.140Z,8.80
2022-10-13T12:12:35.377Z,8.93
2022-10-13T12:15:35.568Z,8.77
2022-10-13T12:18:18.688Z,8.38
2022-10-13T12:20:53.058Z,9.15
2022-10-13T12:23:19.821Z,8.63
2022-10-13T12:25:49.310Z,8.73
2022-10-13T12:28:19.981Z,8.13
2022-10-13T12:30:59.305Z,8.57
2022-10-13T12:33:34.329Z,8.10
2022-10-13T12:36:17.217Z,8.23
2022-10-13T12:38:49.606Z,7.90
2022-10-13T12:41:30.217Z,8.57
2022-10-13T12:44:01.067Z,7.80
2022-10-13T12:46:40.159Z,8.00
2022-10-13T12:49:13.577Z,8.30
2022-10-13T12:51:41.439Z,8.63
2022-10-13T12:54:38.587Z,8.95
2022-10-13T12:57:22.441Z,8.13
2022-10-13T12:59:49.523Z,8.52
2022-10-13T13:02:27.061Z,8.25
2022-10-13T13:04:54.220Z,7.82
2022-10-13T13:07:31.901Z,7.57
2022-10-13T13:10:19.464Z,8.00
2022-10-13T13:12:48.651Z,7.60
2022-10-13T13:15:24.465Z,7.43
2022-10-13T13:17:58.425Z,8.30
2022-10-13T13:20:31.673Z,7.47
2022-10-13T13:22:59.382Z,7.55
2022-10-13T13:25:26.478Z,8.25
2022-10-13T13:27:53.586Z,7.43
2022-10-13T13:30:23.108Z,8.30
2022-10-13T13:32:50.432Z,7.10
2022-10-13T13:35:17.632Z,7.32
2022-10-13T13:37:50.334Z,7.63
2022-10-13T13:40:25.693Z,8.45
2022-10-13T13:42:52.539Z,6.93
2022-10-13T13:45:22.389Z,7.32
2022-10-13T13:47:49.855Z,7.43
2022-10-13T13:50:25.560Z,6.53
2022-10-13T13:52:58.725Z,6.82
2022-10-13T13:55:27.025Z,6.88
2022-10-13T13:57:53.828Z,6.55
2022-10-13T14:00:21.046Z,5.75
2022-10-13T14:05:20.733Z,5.07
2022-10-13T14:07:47.442Z,5.20
2022-10-13T14:10:14.315Z,5.60
2022-10-13T14:12:41.026Z,6.15
2022-10-13T14:15:08.451Z,5.50
2022-10-13T14:17:35.161Z,6.50
2022-10-13T14:20:01.995Z,7.35
2022-10-13T14:22:28.760Z,7.10
2022-10-13T14:24:55.425Z,10.23
2022-10-13T14:27:22.813Z,13.52
2022-10-13T14:29:49.548Z,8.45
2022-10-13T14:32:16.673Z,10.02
2022-10-13T14:34:43.337Z,7.38
2022-10-13T14:37:10.031Z,7.85
2022-10-13T14:39:36.682Z,7.40
2022-10-13T14:42:03.536Z,7.20
2022-10-13T14:44:30.201Z,6.60
2022-10-13T14:46:56.996Z,7.22
2022-10-13T14:49:24.359Z,6.80
2022-10-13T14:51:51.340Z,6.68
2022-10-13T14:54:18.212Z,7.30
2022-10-13T14:56:44.977Z,6.50
2022-10-13T14:59:12.280Z,6.93
2022-10-13T15:01:41.415Z,8.00
2022-10-13T15:04:08.326Z,7.00
2022-10-13T15:06:35.321Z,7.00
2022-10-13T15:09:02.120Z,6.47
2022-10-13T15:11:28.852Z,6.38
2022-10-13T15:13:56.381Z,6.43
2022-10-13T15:16:27.784Z,6.57
2022-10-13T15:18:55.462Z,6.53
2022-10-13T15:21:23.182Z,6.70
2022-10-13T15:23:50.093Z,7.07
2022-10-13T15:26:18.850Z,6.72
2022-10-13T15:28:48.871Z,6.65
2022-10-13T15:31:17.120Z,5.90
2022-10-13T15:33:49.391Z,6.88
2022-10-13T15:36:16.134Z,6.43
2022-10-13T15:38:42.817Z,5.65
2022-10-13T15:41:10.674Z,5.78
2022-10-13T15:43:37.663Z,6.15
2022-10-13T15:46:21.238Z,6.07
2022-10-13T15:48:49.451Z,6.13
2022-10-13T15:51:19.334Z,5.57
2022-10-13T15:53:47.660Z,5.88
2022-10-13T15:56:14.773Z,5.60
2022-10-13T15:58:41.642Z,5.90
2022-10-13T16:01:10.198Z,5.72
2022-10-13T16:03:37.156Z,5.20
2022-10-13T16:06:09.021Z,5.47
2022-10-13T16:08:40.560Z,4.90
2022-10-13T16:11:08.838Z,5.10
2022-10-13T16:13:35.523Z,16.58
2022-10-13T16:16:02.549Z,11.38
2022-10-13T16:18:31.065Z,5.53
2022-10-13T16:20:57.894Z,6.97
2022-10-13T16:23:25.144Z,5.10
2022-10-13T16:25:52.253Z,5.38
2022-10-13T16:28:18.974Z,5.20
2022-10-13T16:30:45.656Z,5.72
2022-10-13T16:33:12.424Z,5.10
2022-10-13T16:35:39.119Z,4.72
2022-10-13T16:38:06.293Z,5.60
2022-10-13T16:40:33.018Z,7.22
2022-10-13T16:42:59.761Z,4.88
2022-10-13T16:45:41.327Z,4.90
2022-10-13T16:48:13.165Z,6.30
2022-10-13T16:50:39.831Z,5.47
2022-10-13T16:53:06.529Z,5.78
2022-10-13T16:55:33.308Z,4.88
2022-10-13T16:57:59.990Z,5.50
2022-10-13T17:00:26.698Z,5.97
2022-10-13T17:02:53.478Z,5.40
2022-10-13T17:05:20.149Z,5.65
2022-10-13T17:07:46.834Z,5.88
2022-10-13T17:10:13.590Z,8.55
2022-10-13T17:12:40.255Z,8.15
2022-10-13T17:15:07.646Z,8.00
2022-10-13T17:17:34.884Z,8.75
2022-10-13T17:20:01.719Z,6.38
2022-10-13T17:22:28.457Z,7.68
2022-10-13T17:24:55.156Z,6.45
2022-10-13T17:27:22.236Z,6.97
2022-10-13T17:29:51.937Z,7.43
2022-10-13T17:32:18.670Z,6.93
2022-10-13T17:34:45.395Z,6.65
2022-10-13T17:37:13.533Z,6.13
2022-10-13T17:39:40.257Z,7.10
2022-10-13T17:42:07.226Z,7.38
2022-10-13T17:44:33.934Z,7.15
2022-10-13T17:47:00.624Z,8.82
2022-10-13T17:49:27.348Z,11.75
2022-10-13T17:51:54.868Z,11.70
2022-10-13T17:54:21.725Z,10.57
2022-10-13T17:56:49.368Z,10.05
2022-10-13T17:59:17.641Z,12.52
2022-10-13T18:01:45.072Z,13.45
2022-10-13T18:04:15.864Z,14.30
2022-10-13T18:06:43.958Z,15.13
2022-10-13T18:09:19.825Z,13.63
2022-10-13T18:11:50.781Z,11.88
2022-10-13T18:14:20.087Z,19.05
2022-10-13T18:16:51.951Z,12.10
2022-10-13T18:19:21.239Z,7.97
2022-10-13T18:21:48.286Z,6.30
2022-10-13T18:24:15.539Z,5.05
2022-10-13T18:26:42.233Z,4.60
2022-10-13T18:29:11.244Z,5.10
2022-10-13T18:31:39.590Z,5.53
2022-10-13T18:34:10.282Z,4.88
2022-10-13T18:36:40.286Z,5.65
2022-10-13T18:39:13.800Z,5.13
2022-10-13T18:41:42.000Z,5.05
2022-10-13T18:44:09.379Z,5.63
2022-10-13T18:46:37.912Z,5.00
2022-10-13T18:49:06.580Z,4.90
2022-10-13T18:51:36.264Z,4.90
2022-10-13T18:54:04.095Z,4.88
2022-10-13T18:56:32.803Z,5.05
2022-10-13T18:59:01.405Z,5.47
2022-10-13T19:01:30.610Z,5.15
2022-10-13T19:03:58.119Z,4.70
2022-10-13T19:06:26.942Z,5.18
2022-10-13T19:08:58.545Z,5.75
2022-10-13T19:11:25.268Z,4.95
2022-10-13T19:13:52.259Z,5.78
2022-10-13T19:16:21.807Z,6.55
2022-10-13T19:18:50.022Z,5.95
2022-10-13T19:21:18.334Z,5.47
2022-10-13T19:23:45.198Z,5.95
2022-10-13T19:26:24.055Z,6.28
2022-10-13T19:28:55.311Z,5.90
2022-10-13T19:31:23.771Z,6.90
2022-10-13T19:33:52.421Z,6.43
2022-10-13T19:36:30.159Z,6.50
2022-10-13T19:39:01.783Z,6.30
2022-10-13T19:41:31.562Z,6.47
2022-10-13T19:43:59.191Z,6.05
2022-10-13T19:46:34.735Z,6.88
2022-10-13T19:49:01.893Z,5.95
2022-10-13T19:51:28.683Z,7.30
2022-10-13T19:53:55.415Z,7.28
2022-10-13T19:56:28.173Z,7.60
2022-10-13T19:58:55.110Z,8.30
2022-10-13T20:01:22.389Z,9.57
2022-10-13T20:03:49.727Z,13.07
2022-10-13T20:06:17.801Z,14.88
2022-10-13T20:08:45.420Z,14.55
2022-10-13T20:11:23.059Z,14.68
2022-10-13T20:13:51.542Z,13.50
2022-10-13T20:16:20.908Z,13.68
2022-10-13T20:18:56.224Z,13.63
2022-10-13T20:21:24.095Z,14.75
2022-10-13T20:23:51.552Z,10.60
2022-10-13T20:26:18.828Z,7.75
2022-10-13T20:28:47.931Z,7.38
2022-10-13T20:31:16.285Z,7.28
2022-10-13T20:33:43.682Z,6.05
2022-10-13T20:36:18.410Z,6.57
2022-10-13T20:38:46.722Z,5.32
2022-10-13T20:41:20.414Z,6.15
2022-10-13T20:43:48.765Z,6.63
2022-10-13T20:46:17.285Z,5.95
2022-10-13T20:49:09.988Z,6.20
2022-10-13T20:51:31.408Z,4.50
2022-10-13T20:53:58.148Z,4.40
2022-10-13T20:56:26.887Z,4.95
2022-10-13T20:58:54.085Z,4.97
2022-10-13T21:01:22.381Z,5.28
2022-10-13T21:03:53.718Z,4.30
2022-10-13T21:06:21.759Z,4.45
2022-10-13T21:08:48.910Z,4.30
2022-10-13T21:11:17.084Z,3.97
2022-10-13T21:13:44.854Z,4.20
2022-10-13T21:16:13.137Z,4.63
2022-10-13T21:18:40.186Z,4.15
2022-10-13T21:21:10.073Z,3.63
2022-10-13T21:23:38.092Z,3.80
2022-10-13T21:26:08.208Z,3.40
2022-10-13T21:28:37.901Z,3.85
2022-10-13T21:31:09.596Z,3.60
2022-10-13T21:33:37.751Z,2.80
2022-10-13T21:36:15.106Z,2.65
2022-10-13T21:38:42.880Z,3.03
2022-10-13T21:41:11.827Z,2.95
2022-10-13T21:43:38.910Z,2.80
2022-10-13T21:46:13.964Z,2.97
2022-10-13T21:48:44.940Z,3.45
2022-10-13T21:51:18.633Z,2.40
2022-10-13T21:53:50.078Z,2.13
2022-10-13T21:56:17.396Z,2.08
2022-10-13T21:58:44.459Z,1.58
2022-10-13T22:01:11.282Z,1.50
2022-10-13T22:03:38.256Z,1.10
2022-10-13T22:06:14.604Z,0.88
2022-10-13T22:08:46.262Z,0.98
2022-10-13T22:11:14.917Z,1.10
2022-10-13T22:13:41.619Z,0.90
2022-10-13T22:16:16.829Z,0.80
2022-10-13T22:18:44.671Z,0.80
2022-10-13T22:21:18.443Z,0.80
2022-10-13T22:23:45.776Z,0.80
2022-10-13T22:26:14.217Z,0.93
2022-10-13T22:28:41.819Z,0.88
2022-10-13T22:31:11.803Z,1.00
2022-10-13T22:33:40.214Z,0.80
2022-10-13T22:36:12.585Z,1.00
2022-10-13T22:38:39.261Z,0.90
2022-10-13T22:41:08.010Z,0.95
2022-10-13T22:43:35.614Z,0.95
2022-10-13T22:46:16.272Z,0.93
2022-10-13T22:48:43.588Z,0.98
2022-10-13T22:51:13.224Z,0.70
2022-10-13T22:53:40.104Z,0.80
2022-10-13T22:56:18.242Z,0.70
2022-10-13T22:58:49.989Z,0.60
2022-10-13T23:01:16.930Z,0.93
2022-10-13T23:03:54.095Z,0.50
2022-10-13T23:06:23.382Z,0.60
2022-10-13T23:08:50.406Z,0.60
2022-10-13T23:11:18.107Z,0.70
2022-10-13T23:13:44.931Z,0.60
2022-10-13T23:16:14.418Z,0.60
2022-10-13T23:18:42.872Z,0.73
2022-10-13T23:21:23.738Z,0.65
2022-10-13T23:23:58.907Z,0.70
2022-10-13T23:26:26.413Z,0.80
2022-10-13T23:28:54.652Z,0.70
2022-10-13T23:31:21.481Z,0.88
2022-10-13T23:33:48.751Z,0.90
2022-10-13T23:36:21.489Z,0.98
2022-10-13T23:38:48.732Z,0.70
2022-10-13T23:41:16.344Z,1.00
2022-10-13T23:43:43.792Z,0.88
2022-10-13T23:46:10.935Z,0.80
2022-10-13T23:48:38.601Z,1.02
2022-10-13T23:51:10.606Z,0.80
2022-10-13T23:53:38.473Z,0.80
2022-10-13T23:56:06.372Z,0.57
2022-10-13T23:58:35.589Z,0.70
